sensor_id;sensor_type;location;lat;lon;timestamp;P1;durP1;ratioP1;P2;durP2;ratioP2
7941;SDS011;4016;50.758;7.150;2022-12-07T00:00:11;12.37;;;7.77;;
7941;SDS011;4016;50.758;7.150;2022-12-07T00:05:12;16.17;;;9.03;;
7941;SDS011;4016;50.758;7.150;2022-12-07T00:10:13;12.67;;;8.20;;
7941;SDS011;4016;50.758;7.150;2022-12-07T00:15:13;14.60;;;9.27;;
7941;SDS011;4016;50.758;7.150;2022-12-07T00:20:13;14.27;;;9.60;;
7941;SDS011;4016;50.758;7.150;2022-12-07T00:25:14;15.33;;;10.00;;
7941;SDS011;4016;50.758;7.150;2022-12-07T00:30:14;13.67;;;9.03;;
7941;SDS011;4016;50.758;7.150;2022-12-07T00:35:15;13.63;;;9.17;;
7941;SDS011;4016;50.758;7.150;2022-12-07T00:52:09;14.93;;;9.97;;
7941;SDS011;4016;50.758;7.150;2022-12-07T00:57:09;13.63;;;10.30;;
7941;SDS011;4016;50.758;7.150;2022-12-07T01:02:09;17.80;;;10.87;;
7941;SDS011;4016;50.758;7.150;2022-12-07T01:07:10;17.40;;;11.03;;
7941;SDS011;4016;50.758;7.150;2022-12-07T01:12:10;14.87;;;10.60;;
7941;SDS011;4016;50.758;7.150;2022-12-07T01:17:10;15.67;;;10.20;;
7941;SDS011;4016;50.758;7.150;2022-12-07T01:22:11;17.33;;;11.43;;
7941;SDS011;4016;50.758;7.150;2022-12-07T01:27:11;17.43;;;11.07;;
7941;SDS011;4016;50.758;7.150;2022-12-07T01:32:12;15.10;;;10.47;;
7941;SDS011;4016;50.758;7.150;2022-12-07T01:37:12;18.00;;;11.70;;
7941;SDS011;4016;50.758;7.150;2022-12-07T01:42:13;14.70;;;9.90;;
7941;SDS011;4016;50.758;7.150;2022-12-07T01:47:13;16.47;;;10.40;;
7941;SDS011;4016;50.758;7.150;2022-12-07T01:52:15;15.67;;;10.43;;
7941;SDS011;4016;50.758;7.150;2022-12-07T01:57:23;15.27;;;10.33;;
7941;SDS011;4016;50.758;7.150;2022-12-07T02:02:28;16.90;;;10.83;;
7941;SDS011;4016;50.758;7.150;2022-12-07T02:07:34;18.10;;;10.87;;
7941;SDS011;4016;50.758;7.150;2022-12-07T02:12:37;17.50;;;10.60;;
7941;SDS011;4016;50.758;7.150;2022-12-07T02:18:00;14.63;;;10.73;;
7941;SDS011;4016;50.758;7.150;2022-12-07T02:34:09;15.47;;;10.43;;
7941;SDS011;4016;50.758;7.150;2022-12-07T02:39:17;19.93;;;12.47;;
7941;SDS011;4016;50.758;7.150;2022-12-07T02:44:25;22.50;;;11.47;;
7941;SDS011;4016;50.758;7.150;2022-12-07T02:49:28;17.20;;;11.40;;
7941;SDS011;4016;50.758;7.150;2022-12-07T02:54:30;15.20;;;10.17;;
7941;SDS011;4016;50.758;7.150;2022-12-07T03:15:13;15.20;;;10.27;;
7941;SDS011;4016;50.758;7.150;2022-12-07T03:20:19;17.03;;;10.87;;
7941;SDS011;4016;50.758;7.150;2022-12-07T03:25:22;17.50;;;11.13;;
7941;SDS011;4016;50.758;7.150;2022-12-07T03:30:24;15.90;;;11.43;;
7941;SDS011;4016;50.758;7.150;2022-12-07T03:35:33;15.40;;;10.53;;
7941;SDS011;4016;50.758;7.150;2022-12-07T03:40:39;16.33;;;11.03;;
7941;SDS011;4016;50.758;7.150;2022-12-07T03:45:48;14.33;;;11.00;;
7941;SDS011;4016;50.758;7.150;2022-12-07T03:51:16;14.97;;;9.17;;
7941;SDS011;4016;50.758;7.150;2022-12-07T03:56:28;16.10;;;11.23;;
7941;SDS011;4016;50.758;7.150;2022-12-07T04:01:30;17.90;;;11.47;;
7941;SDS011;4016;50.758;7.150;2022-12-07T04:06:31;20.33;;;11.83;;
7941;SDS011;4016;50.758;7.150;2022-12-07T04:11:31;19.00;;;11.27;;
7941;SDS011;4016;50.758;7.150;2022-12-07T04:16:32;15.23;;;10.90;;
7941;SDS011;4016;50.758;7.150;2022-12-07T04:21:32;16.20;;;11.17;;
7941;SDS011;4016;50.758;7.150;2022-12-07T04:26:32;15.67;;;10.43;;
7941;SDS011;4016;50.758;7.150;2022-12-07T04:31:33;18.70;;;10.87;;
7941;SDS011;4016;50.758;7.150;2022-12-07T04:36:34;12.37;;;9.70;;
7941;SDS011;4016;50.758;7.150;2022-12-07T04:41:35;16.87;;;10.83;;
7941;SDS011;4016;50.758;7.150;2022-12-07T04:46:35;14.07;;;10.53;;
7941;SDS011;4016;50.758;7.150;2022-12-07T04:51:36;17.07;;;10.60;;
7941;SDS011;4016;50.758;7.150;2022-12-07T04:56:36;13.67;;;10.03;;
7941;SDS011;4016;50.758;7.150;2022-12-07T05:01:37;19.77;;;12.13;;
7941;SDS011;4016;50.758;7.150;2022-12-07T05:06:38;16.30;;;10.63;;
7941;SDS011;4016;50.758;7.150;2022-12-07T05:11:38;16.57;;;10.93;;
7941;SDS011;4016;50.758;7.150;2022-12-07T05:16:39;14.17;;;9.97;;
7941;SDS011;4016;50.758;7.150;2022-12-07T05:21:40;16.03;;;10.97;;
7941;SDS011;4016;50.758;7.150;2022-12-07T05:26:41;16.10;;;11.23;;
7941;SDS011;4016;50.758;7.150;2022-12-07T05:31:42;13.57;;;9.80;;
7941;SDS011;4016;50.758;7.150;2022-12-07T05:36:42;15.77;;;9.97;;
7941;SDS011;4016;50.758;7.150;2022-12-07T05:41:42;15.47;;;10.93;;
7941;SDS011;4016;50.758;7.150;2022-12-07T05:47:01;14.10;;;9.70;;
7941;SDS011;4016;50.758;7.150;2022-12-07T05:52:02;13.13;;;8.83;;
7941;SDS011;4016;50.758;7.150;2022-12-07T05:57:02;12.60;;;9.97;;
7941;SDS011;4016;50.758;7.150;2022-12-07T06:02:04;14.67;;;10.00;;
7941;SDS011;4016;50.758;7.150;2022-12-07T06:07:07;16.97;;;9.63;;
7941;SDS011;4016;50.758;7.150;2022-12-07T06:12:11;13.97;;;9.30;;
7941;SDS011;4016;50.758;7.150;2022-12-07T06:17:30;14.07;;;9.50;;
7941;SDS011;4016;50.758;7.150;2022-12-07T06:22:30;13.70;;;9.70;;
7941;SDS011;4016;50.758;7.150;2022-12-07T06:27:31;16.80;;;10.23;;
7941;SDS011;4016;50.758;7.150;2022-12-07T06:32:33;13.80;;;9.10;;
7941;SDS011;4016;50.758;7.150;2022-12-07T06:37:33;13.13;;;8.57;;
7941;SDS011;4016;50.758;7.150;2022-12-07T06:42:34;13.33;;;9.17;;
7941;SDS011;4016;50.758;7.150;2022-12-07T06:47:34;15.17;;;9.17;;
7941;SDS011;4016;50.758;7.150;2022-12-07T06:52:34;18.63;;;10.83;;
7941;SDS011;4016;50.758;7.150;2022-12-07T06:57:35;14.00;;;9.30;;
7941;SDS011;4016;50.758;7.150;2022-12-07T07:02:35;16.00;;;9.23;;
7941;SDS011;4016;50.758;7.150;2022-12-07T07:07:35;13.33;;;9.60;;
7941;SDS011;4016;50.758;7.150;2022-12-07T07:12:36;15.57;;;10.27;;
7941;SDS011;4016;50.758;7.150;2022-12-07T07:17:36;16.13;;;8.50;;
7941;SDS011;4016;50.758;7.150;2022-12-07T07:22:37;17.80;;;9.80;;
7941;SDS011;4016;50.758;7.150;2022-12-07T07:27:37;13.67;;;8.57;;
7941;SDS011;4016;50.758;7.150;2022-12-07T07:32:37;12.20;;;8.23;;
7941;SDS011;4016;50.758;7.150;2022-12-07T07:37:38;12.50;;;8.27;;
7941;SDS011;4016;50.758;7.150;2022-12-07T07:42:38;13.07;;;8.20;;
7941;SDS011;4016;50.758;7.150;2022-12-07T07:47:39;14.13;;;8.67;;
7941;SDS011;4016;50.758;7.150;2022-12-07T07:52:39;11.13;;;7.97;;
7941;SDS011;4016;50.758;7.150;2022-12-07T07:57:40;13.60;;;8.67;;
7941;SDS011;4016;50.758;7.150;2022-12-07T08:02:41;11.03;;;7.73;;
7941;SDS011;4016;50.758;7.150;2022-12-07T08:07:43;14.23;;;9.43;;
7941;SDS011;4016;50.758;7.150;2022-12-07T08:12:43;11.47;;;8.63;;
7941;SDS011;4016;50.758;7.150;2022-12-07T08:18:02;10.63;;;7.53;;
7941;SDS011;4016;50.758;7.150;2022-12-07T08:23:04;16.67;;;8.47;;
7941;SDS011;4016;50.758;7.150;2022-12-07T08:28:05;15.73;;;10.17;;
7941;SDS011;4016;50.758;7.150;2022-12-07T08:33:06;14.43;;;9.03;;
7941;SDS011;4016;50.758;7.150;2022-12-07T08:38:06;15.33;;;9.73;;
7941;SDS011;4016;50.758;7.150;2022-12-07T08:43:07;13.67;;;9.67;;
7941;SDS011;4016;50.758;7.150;2022-12-07T08:48:08;14.30;;;8.70;;
7941;SDS011;4016;50.758;7.150;2022-12-07T08:53:11;13.83;;;9.67;;
7941;SDS011;4016;50.758;7.150;2022-12-07T08:58:12;14.37;;;9.23;;
7941;SDS011;4016;50.758;7.150;2022-12-07T09:03:12;12.43;;;8.80;;
7941;SDS011;4016;50.758;7.150;2022-12-07T09:08:13;13.70;;;9.10;;
7941;SDS011;4016;50.758;7.150;2022-12-07T09:13:13;12.93;;;9.40;;
7941;SDS011;4016;50.758;7.150;2022-12-07T09:18:14;13.20;;;9.03;;
7941;SDS011;4016;50.758;7.150;2022-12-07T09:23:14;16.33;;;8.50;;
7941;SDS011;4016;50.758;7.150;2022-12-07T09:28:14;13.40;;;8.47;;
7941;SDS011;4016;50.758;7.150;2022-12-07T09:33:15;15.03;;;8.60;;
7941;SDS011;4016;50.758;7.150;2022-12-07T09:38:16;13.50;;;9.03;;
7941;SDS011;4016;50.758;7.150;2022-12-07T09:43:18;11.20;;;8.03;;
7941;SDS011;4016;50.758;7.150;2022-12-07T09:48:22;13.90;;;8.97;;
7941;SDS011;4016;50.758;7.150;2022-12-07T09:53:36;13.40;;;7.50;;
7941;SDS011;4016;50.758;7.150;2022-12-07T09:58:38;12.63;;;9.23;;
7941;SDS011;4016;50.758;7.150;2022-12-07T10:03:39;10.10;;;7.77;;
7941;SDS011;4016;50.758;7.150;2022-12-07T10:08:42;9.50;;;7.73;;
7941;SDS011;4016;50.758;7.150;2022-12-07T10:13:44;13.17;;;7.93;;
7941;SDS011;4016;50.758;7.150;2022-12-07T10:18:53;11.93;;;7.77;;
7941;SDS011;4016;50.758;7.150;2022-12-07T10:34:25;8.83;;;6.53;;
7941;SDS011;4016;50.758;7.150;2022-12-07T10:39:29;10.93;;;8.20;;
7941;SDS011;4016;50.758;7.150;2022-12-07T10:45:04;8.47;;;6.47;;
7941;SDS011;4016;50.758;7.150;2022-12-07T11:00:37;11.20;;;6.83;;
7941;SDS011;4016;50.758;7.150;2022-12-07T11:11:26;8.10;;;6.13;;
7941;SDS011;4016;50.758;7.150;2022-12-07T11:27:18;7.20;;;5.47;;
7941;SDS011;4016;50.758;7.150;2022-12-07T11:32:22;11.10;;;6.03;;
7941;SDS011;4016;50.758;7.150;2022-12-07T11:37:33;12.60;;;5.90;;
7941;SDS011;4016;50.758;7.150;2022-12-07T11:42:38;10.83;;;5.27;;
7941;SDS011;4016;50.758;7.150;2022-12-07T11:53:21;6.13;;;3.97;;
7941;SDS011;4016;50.758;7.150;2022-12-07T12:03:33;7.33;;;3.97;;
7941;SDS011;4016;50.758;7.150;2022-12-07T12:08:53;7.57;;;4.40;;
7941;SDS011;4016;50.758;7.150;2022-12-07T12:14:02;5.50;;;4.17;;
7941;SDS011;4016;50.758;7.150;2022-12-07T12:24:48;7.07;;;3.60;;
7941;SDS011;4016;50.758;7.150;2022-12-07T12:29:53;5.17;;;3.40;;
7941;SDS011;4016;50.758;7.150;2022-12-07T12:45:31;7.47;;;3.57;;
7941;SDS011;4016;50.758;7.150;2022-12-07T12:50:34;10.10;;;4.50;;
7941;SDS011;4016;50.758;7.150;2022-12-07T13:00:42;7.53;;;4.67;;
7941;SDS011;4016;50.758;7.150;2022-12-07T13:05:43;6.80;;;4.77;;
7941;SDS011;4016;50.758;7.150;2022-12-07T13:10:45;13.30;;;6.37;;
7941;SDS011;4016;50.758;7.150;2022-12-07T13:15:48;8.10;;;5.03;;
7941;SDS011;4016;50.758;7.150;2022-12-07T13:36:37;6.90;;;5.27;;
7941;SDS011;4016;50.758;7.150;2022-12-07T13:41:41;5.67;;;4.43;;
7941;SDS011;4016;50.758;7.150;2022-12-07T13:46:44;7.53;;;3.60;;
7941;SDS011;4016;50.758;7.150;2022-12-07T13:51:50;5.17;;;3.83;;
7941;SDS011;4016;50.758;7.150;2022-12-07T13:56:51;5.87;;;3.97;;
7941;SDS011;4016;50.758;7.150;2022-12-07T14:01:53;5.90;;;4.50;;
7941;SDS011;4016;50.758;7.150;2022-12-07T14:06:54;7.50;;;4.63;;
7941;SDS011;4016;50.758;7.150;2022-12-07T14:11:55;5.73;;;4.63;;
7941;SDS011;4016;50.758;7.150;2022-12-07T14:17:14;9.50;;;5.57;;
7941;SDS011;4016;50.758;7.150;2022-12-07T14:22:30;7.20;;;4.63;;
7941;SDS011;4016;50.758;7.150;2022-12-07T14:27:32;6.53;;;4.43;;
7941;SDS011;4016;50.758;7.150;2022-12-07T14:32:36;5.07;;;3.93;;
7941;SDS011;4016;50.758;7.150;2022-12-07T14:37:37;6.27;;;4.33;;
7941;SDS011;4016;50.758;7.150;2022-12-07T14:42:39;5.13;;;3.30;;
7941;SDS011;4016;50.758;7.150;2022-12-07T14:47:40;7.10;;;3.23;;
7941;SDS011;4016;50.758;7.150;2022-12-07T14:52:40;4.67;;;2.47;;
7941;SDS011;4016;50.758;7.150;2022-12-07T14:57:43;3.87;;;3.17;;
7941;SDS011;4016;50.758;7.150;2022-12-07T15:02:44;3.50;;;3.20;;
7941;SDS011;4016;50.758;7.150;2022-12-07T15:07:45;7.90;;;3.60;;
7941;SDS011;4016;50.758;7.150;2022-12-07T15:12:47;4.47;;;3.30;;
7941;SDS011;4016;50.758;7.150;2022-12-07T15:17:47;4.90;;;3.20;;
7941;SDS011;4016;50.758;7.150;2022-12-07T15:22:47;4.33;;;3.40;;
7941;SDS011;4016;50.758;7.150;2022-12-07T15:27:48;3.83;;;3.43;;
7941;SDS011;4016;50.758;7.150;2022-12-07T15:32:49;4.97;;;3.77;;
7941;SDS011;4016;50.758;7.150;2022-12-07T15:37:50;7.27;;;4.23;;
7941;SDS011;4016;50.758;7.150;2022-12-07T15:42:50;6.13;;;4.37;;
7941;SDS011;4016;50.758;7.150;2022-12-07T15:47:50;5.40;;;3.97;;
7941;SDS011;4016;50.758;7.150;2022-12-07T15:52:51;7.57;;;4.20;;
7941;SDS011;4016;50.758;7.150;2022-12-07T15:57:51;6.97;;;4.97;;
7941;SDS011;4016;50.758;7.150;2022-12-07T16:02:51;6.00;;;4.47;;
7941;SDS011;4016;50.758;7.150;2022-12-07T16:07:52;7.73;;;5.03;;
7941;SDS011;4016;50.758;7.150;2022-12-07T16:12:52;6.80;;;4.90;;
7941;SDS011;4016;50.758;7.150;2022-12-07T16:17:52;8.67;;;5.20;;
7941;SDS011;4016;50.758;7.150;2022-12-07T16:22:53;7.67;;;5.37;;
7941;SDS011;4016;50.758;7.150;2022-12-07T16:27:54;11.37;;;4.80;;
7941;SDS011;4016;50.758;7.150;2022-12-07T16:32:54;9.97;;;5.17;;
7941;SDS011;4016;50.758;7.150;2022-12-07T16:37:55;7.20;;;4.97;;
7941;SDS011;4016;50.758;7.150;2022-12-07T16:42:55;6.47;;;4.53;;
7941;SDS011;4016;50.758;7.150;2022-12-07T16:47:55;6.60;;;4.77;;
7941;SDS011;4016;50.758;7.150;2022-12-07T16:52:56;5.20;;;4.50;;
7941;SDS011;4016;50.758;7.150;2022-12-07T16:57:56;6.00;;;5.40;;
7941;SDS011;4016;50.758;7.150;2022-12-07T17:02:56;5.93;;;3.90;;
7941;SDS011;4016;50.758;7.150;2022-12-07T17:07:57;6.83;;;4.30;;
7941;SDS011;4016;50.758;7.150;2022-12-07T17:12:57;6.67;;;4.57;;
7941;SDS011;4016;50.758;7.150;2022-12-07T17:17:58;10.67;;;4.33;;
7941;SDS011;4016;50.758;7.150;2022-12-07T17:22:58;6.37;;;5.00;;
7941;SDS011;4016;50.758;7.150;2022-12-07T17:27:59;7.30;;;5.53;;
7941;SDS011;4016;50.758;7.150;2022-12-07T17:32:59;8.50;;;6.27;;
7941;SDS011;4016;50.758;7.150;2022-12-07T17:37:59;6.67;;;5.93;;
7941;SDS011;4016;50.758;7.150;2022-12-07T17:43:00;7.93;;;6.40;;
7941;SDS011;4016;50.758;7.150;2022-12-07T17:48:00;6.77;;;6.00;;
7941;SDS011;4016;50.758;7.150;2022-12-07T17:53:00;14.50;;;7.30;;
7941;SDS011;4016;50.758;7.150;2022-12-07T17:58:10;12.57;;;7.40;;
7941;SDS011;4016;50.758;7.150;2022-12-07T18:03:10;12.90;;;7.53;;
7941;SDS011;4016;50.758;7.150;2022-12-07T18:08:11;12.10;;;7.57;;
7941;SDS011;4016;50.758;7.150;2022-12-07T18:13:11;8.50;;;6.33;;
7941;SDS011;4016;50.758;7.150;2022-12-07T18:18:30;10.03;;;6.63;;
7941;SDS011;4016;50.758;7.150;2022-12-07T18:23:31;8.27;;;6.40;;
7941;SDS011;4016;50.758;7.150;2022-12-07T18:28:32;9.93;;;6.77;;
7941;SDS011;4016;50.758;7.150;2022-12-07T18:33:33;8.77;;;6.80;;
7941;SDS011;4016;50.758;7.150;2022-12-07T18:38:34;10.70;;;7.17;;
7941;SDS011;4016;50.758;7.150;2022-12-07T18:43:35;9.57;;;6.83;;
7941;SDS011;4016;50.758;7.150;2022-12-07T18:48:35;10.30;;;6.63;;
7941;SDS011;4016;50.758;7.150;2022-12-07T18:53:36;8.97;;;6.83;;
7941;SDS011;4016;50.758;7.150;2022-12-07T18:58:36;10.77;;;7.03;;
7941;SDS011;4016;50.758;7.150;2022-12-07T19:03:37;9.87;;;6.60;;
7941;SDS011;4016;50.758;7.150;2022-12-07T19:08:37;12.30;;;6.20;;
7941;SDS011;4016;50.758;7.150;2022-12-07T19:13:38;12.30;;;6.70;;
7941;SDS011;4016;50.758;7.150;2022-12-07T19:18:38;9.17;;;6.13;;
7941;SDS011;4016;50.758;7.150;2022-12-07T19:23:38;8.97;;;6.40;;
7941;SDS011;4016;50.758;7.150;2022-12-07T19:28:39;7.17;;;5.60;;
7941;SDS011;4016;50.758;7.150;2022-12-07T19:33:39;11.03;;;6.77;;
7941;SDS011;4016;50.758;7.150;2022-12-07T19:38:40;8.87;;;6.40;;
7941;SDS011;4016;50.758;7.150;2022-12-07T19:43:40;7.97;;;5.57;;
7941;SDS011;4016;50.758;7.150;2022-12-07T19:48:40;8.30;;;6.27;;
7941;SDS011;4016;50.758;7.150;2022-12-07T19:53:41;8.13;;;5.63;;
7941;SDS011;4016;50.758;7.150;2022-12-07T19:58:41;8.43;;;6.20;;
7941;SDS011;4016;50.758;7.150;2022-12-07T20:03:42;7.60;;;5.47;;
7941;SDS011;4016;50.758;7.150;2022-12-07T20:08:43;8.30;;;5.97;;
7941;SDS011;4016;50.758;7.150;2022-12-07T20:13:44;8.10;;;6.00;;
7941;SDS011;4016;50.758;7.150;2022-12-07T20:18:45;6.20;;;5.57;;
7941;SDS011;4016;50.758;7.150;2022-12-07T20:23:45;7.13;;;5.57;;
7941;SDS011;4016;50.758;7.150;2022-12-07T20:28:46;6.73;;;5.53;;
7941;SDS011;4016;50.758;7.150;2022-12-07T20:33:46;8.53;;;6.00;;
7941;SDS011;4016;50.758;7.150;2022-12-07T20:38:47;9.43;;;6.40;;
7941;SDS011;4016;50.758;7.150;2022-12-07T20:43:47;9.13;;;6.43;;
7941;SDS011;4016;50.758;7.150;2022-12-07T20:48:48;7.23;;;6.17;;
7941;SDS011;4016;50.758;7.150;2022-12-07T20:53:48;8.10;;;6.20;;
7941;SDS011;4016;50.758;7.150;2022-12-07T20:58:49;10.07;;;6.63;;
7941;SDS011;4016;50.758;7.150;2022-12-07T21:03:53;8.67;;;6.33;;
7941;SDS011;4016;50.758;7.150;2022-12-07T21:08:55;9.83;;;6.87;;
7941;SDS011;4016;50.758;7.150;2022-12-07T21:13:57;7.70;;;5.73;;
7941;SDS011;4016;50.758;7.150;2022-12-07T21:18:58;7.00;;;5.77;;
7941;SDS011;4016;50.758;7.150;2022-12-07T21:24:02;7.43;;;5.83;;
7941;SDS011;4016;50.758;7.150;2022-12-07T21:29:04;11.00;;;6.60;;
7941;SDS011;4016;50.758;7.150;2022-12-07T21:34:06;8.57;;;5.97;;
7941;SDS011;4016;50.758;7.150;2022-12-07T21:39:06;7.57;;;5.10;;
7941;SDS011;4016;50.758;7.150;2022-12-07T21:44:06;8.30;;;6.00;;
7941;SDS011;4016;50.758;7.150;2022-12-07T21:49:10;6.57;;;5.53;;
7941;SDS011;4016;50.758;7.150;2022-12-07T21:54:11;7.13;;;5.87;;
7941;SDS011;4016;50.758;7.150;2022-12-07T21:59:15;9.17;;;6.37;;
7941;SDS011;4016;50.758;7.150;2022-12-07T22:04:23;5.97;;;5.07;;
7941;SDS011;4016;50.758;7.150;2022-12-07T22:09:24;9.80;;;6.17;;
7941;SDS011;4016;50.758;7.150;2022-12-07T22:14:27;10.43;;;6.00;;
7941;SDS011;4016;50.758;7.150;2022-12-07T22:19:46;9.40;;;6.47;;
7941;SDS011;4016;50.758;7.150;2022-12-07T22:24:47;8.53;;;5.73;;
7941;SDS011;4016;50.758;7.150;2022-12-07T22:29:47;6.03;;;4.80;;
7941;SDS011;4016;50.758;7.150;2022-12-07T22:34:47;6.47;;;5.43;;
7941;SDS011;4016;50.758;7.150;2022-12-07T22:39:48;8.33;;;5.30;;
7941;SDS011;4016;50.758;7.150;2022-12-07T22:44:48;7.57;;;5.80;;
7941;SDS011;4016;50.758;7.150;2022-12-07T22:49:48;6.50;;;5.20;;
7941;SDS011;4016;50.758;7.150;2022-12-07T22:54:50;6.67;;;5.17;;
7941;SDS011;4016;50.758;7.150;2022-12-07T22:59:50;7.50;;;5.50;;
7941;SDS011;4016;50.758;7.150;2022-12-07T23:04:51;7.10;;;5.53;;
7941;SDS011;4016;50.758;7.150;2022-12-07T23:09:51;10.70;;;5.70;;
7941;SDS011;4016;50.758;7.150;2022-12-07T23:14:51;7.60;;;5.50;;
7941;SDS011;4016;50.758;7.150;2022-12-07T23:19:53;6.47;;;5.47;;
7941;SDS011;4016;50.758;7.150;2022-12-07T23:24:53;8.23;;;4.97;;
7941;SDS011;4016;50.758;7.150;2022-12-07T23:29:54;8.73;;;5.47;;
7941;SDS011;4016;50.758;7.150;2022-12-07T23:34:54;7.57;;;5.77;;
7941;SDS011;4016;50.758;7.150;2022-12-07T23:39:54;7.63;;;5.43;;
7941;SDS011;4016;50.758;7.150;2022-12-07T23:44:55;9.00;;;5.30;;
7941;SDS011;4016;50.758;7.150;2022-12-07T23:49:55;7.30;;;5.50;;
7941;SDS011;4016;50.758;7.150;2022-12-07T23:54:56;6.60;;;5.60;;
7941;SDS011;4016;50.758;7.150;2022-12-07T23:59:56;7.40;;;5.70;;
